Terminal Aerodrome Forecast
Issued by NWS

Home | Current Version | Previous Version | Text Only | Print | Product List | Glossary On
Versions: 1 2 3 4 5 6 7 8 9 10 11 12 13 14 15 16 17 18 19 20 21 22 23 24 25 26 27 28 29 30 31 32 33 34 35 36 37 38 39 40 41 42 43 44 45 46 47 48 49 50
000
FTUS46 KSGX 050257 AAQ
TAFSAN
TAF AMD
KSAN 050257Z 0503/0606 18005KT P6SM OVC015
      TEMPO 0503/0504 SCT016
     FM050400 19006KT P6SM BKN016
     FM050900 19010KT 6SM BR OVC012
      TEMPO 0512/0515 5SM -DZ BR OVC010
     FM051800 19010KT P6SM OVC015
     FM052300 23010KT P6SM BKN020=

USA.gov is the U.S. government's official web portal to all federal, state and local government web resources and services.